Time;durP1;ratioP1;P1;durP2;ratioP2;P2;SDS_P1;SDS_P2;PMS_P1;PMS_P2;Temp;Humidity;BMP_temperature;BMP_pressure;BME280_temperature;BME280_humidity;BME280_pressure;Samples;Min_cycle;Max_cycle;Signal;HPM_P1;HPM_P2
2022/05/09 00:01:56;;;;;;;10.52;7.15;;;11.40;99.90;;;11.07;100.00;97930.91;4996058;28;20021;-47
2022/05/09 00:04:22;;;;;;;8.65;6.97;;;11.40;99.90;;;11.01;100.00;97922.28;4992479;28;20030;-45
2022/05/09 00:06:49;;;;;;;7.43;6.45;;;11.50;99.90;;;11.04;100.00;97930.97;4995109;28;20045;-46
2022/05/09 00:09:17;;;;;;;8.88;6.93;;;11.40;99.90;;;11.03;100.00;97920.47;4995856;28;20040;-48
2022/05/09 00:11:43;;;;;;;9.73;7.63;;;11.40;99.90;;;11.00;100.00;97923.19;4993111;28;20034;-47
2022/05/09 00:14:10;;;;;;;8.65;7.15;;;11.30;99.90;;;10.95;100.00;97917.22;4993643;28;20045;-44
2022/05/09 00:16:36;;;;;;;10.77;8.05;;;11.30;99.90;;;10.92;100.00;97914.66;4992202;28;20680;-43
2022/05/09 00:19:08;;;;;;;11.30;8.02;;;11.30;99.90;;;10.88;100.00;97921.81;4991587;28;20670;-45
2022/05/09 00:21:37;;;;;;;10.87;8.30;;;11.20;99.90;;;10.82;100.00;97917.56;4993223;28;20038;-43
2022/05/09 00:24:04;;;;;;;12.13;7.90;;;11.20;99.90;;;10.80;100.00;97913.25;4993423;28;20088;-44
2022/05/09 00:26:31;;;;;;;10.77;8.18;;;11.20;99.90;;;10.79;100.00;97916.81;4993394;28;20131;-45
2022/05/09 00:29:03;;;;;;;9.68;8.00;;;11.10;99.90;;;10.68;100.00;97904.78;4992980;28;20026;-46
2022/05/09 00:31:29;;;;;;;12.70;8.52;;;11.10;99.90;;;10.69;100.00;97903.00;4991918;28;20026;-46
2022/05/09 00:33:55;;;;;;;10.95;7.80;;;11.10;99.90;;;10.67;100.00;97908.31;4992549;28;20034;-44
2022/05/09 00:36:21;;;;;;;10.70;8.15;;;11.00;99.90;;;10.64;100.00;97908.44;4995236;28;20108;-44
2022/05/09 00:38:49;;;;;;;8.80;7.53;;;11.00;99.90;;;10.63;100.00;97914.59;4993739;28;20042;-44
2022/05/09 00:44:25;;;;;;;10.18;8.05;;;10.90;99.90;;;10.48;100.00;97910.63;4992596;28;20411;-44
2022/05/09 00:46:53;;;;;;;9.43;6.88;;;10.90;99.90;;;10.45;100.00;97910.72;4973126;28;20026;-45
2022/05/09 00:49:35;;;;;;;9.68;7.65;;;10.90;99.90;;;10.45;100.00;97910.72;4997272;28;20448;-44
2022/05/09 00:52:14;;;;;;;10.17;7.70;;;10.80;99.90;;;10.42;100.00;97923.13;4978253;28;20037;-45
2022/05/09 00:54:50;;;;;;;9.38;7.57;;;10.80;99.90;;;10.34;100.00;97918.06;4993568;28;20064;-44
2022/05/09 00:57:22;;;;;;;10.27;7.90;;;10.70;99.90;;;10.31;100.00;97923.44;4979669;28;20041;-46
2022/05/09 00:59:50;;;;;;;;;;;10.70;99.90;;;10.26;100.00;97920.88;4993258;28;20088;-45
2022/05/09 01:02:19;;;;;;;11.45;8.18;;;10.70;99.90;;;10.21;100.00;97921.91;4991965;28;20377;-44
2022/05/09 01:04:52;;;;;;;10.32;7.97;;;10.60;99.90;;;10.18;100.00;97922.00;4977308;28;20393;-43
2022/05/09 01:07:19;;;;;;;9.93;8.27;;;10.60;99.90;;;10.09;100.00;97913.44;4993785;28;20510;-43
2022/05/09 01:09:44;;;;;;;10.05;8.07;;;10.60;99.90;;;10.10;100.00;97925.72;4996841;28;20041;-45
2022/05/09 01:12:12;;;;;;;9.20;7.72;;;10.50;99.90;;;10.07;100.00;97925.78;4992967;28;20608;-44
2022/05/09 01:14:39;;;;;;;10.55;8.15;;;10.50;99.90;;;10.04;100.00;97925.00;4992485;28;20509;-45
2022/05/09 01:17:06;;;;;;;11.55;8.20;;;10.40;99.90;;;9.99;100.00;97926.88;4977169;28;20125;-45
2022/05/09 01:19:39;;;;;;;10.38;7.93;;;10.40;99.90;;;9.95;100.00;97926.09;4994974;28;20042;-44
2022/05/09 01:22:27;;;;;;;9.57;8.25;;;10.40;99.90;;;9.89;100.00;97924.50;4991019;28;20034;-46
2022/05/09 01:24:56;;;;;;;12.13;8.38;;;10.30;99.90;;;9.86;100.00;97924.56;4994302;28;20574;-45
2022/05/09 01:27:22;;;;;;;9.90;8.52;;;10.30;99.90;;;9.85;100.00;97924.59;4992134;28;20403;-43
2022/05/09 01:29:59;;;;;;;12.05;8.60;;;10.20;99.90;;;9.80;100.00;97923.84;4974852;28;20053;-45
2022/05/09 01:32:40;;;;;;;12.20;8.57;;;10.20;99.90;;;9.80;100.00;97922.09;4975452;28;20403;-45
2022/05/09 01:35:31;;;;;;;8.77;7.88;;;10.20;99.90;;;9.79;100.00;97919.50;4992126;28;20034;-43
2022/05/09 01:38:13;;;;;;;10.32;8.90;;;10.20;99.90;;;9.78;100.00;97917.75;4991523;28;20123;-46
2022/05/09 01:40:38;;;;;;;11.20;9.60;;;10.20;99.90;;;9.77;100.00;97921.31;4975279;28;20033;-45
2022/05/09 01:43:04;;;;;;;10.68;8.75;;;10.20;99.90;;;9.77;100.00;97918.69;4989033;28;20517;-44
2022/05/09 01:45:30;;;;;;;10.40;9.02;;;10.10;99.90;;;9.76;100.00;97917.78;4993361;28;20050;-45
2022/05/09 01:50:40;;;;;;;10.27;9.18;;;10.10;99.90;;;9.72;100.00;97913.53;4991448;28;20415;-45
2022/05/09 01:53:05;;;;;;;12.95;9.50;;;10.10;99.90;;;9.73;100.00;97913.47;4993413;28;20038;-46
2022/05/09 01:55:31;;;;;;;12.23;9.85;;;10.10;99.90;;;9.74;100.00;97916.97;4993912;28;20053;-46
2022/05/09 01:57:57;;;;;;;10.95;9.27;;;10.10;99.90;;;9.74;100.00;97914.34;4991955;28;20033;-45
2022/05/09 02:00:24;;;;;;;12.68;9.50;;;10.10;99.90;;;9.74;100.00;97916.97;4991031;28;20673;-45
2022/05/09 02:02:50;;;;;;;12.88;9.77;;;10.10;99.90;;;9.74;100.00;97923.13;4992859;28;20065;-44
2022/05/09 02:05:16;;;;;;;13.85;9.57;;;10.10;99.90;;;9.67;100.00;97916.28;4993038;28;20125;-47
2022/05/09 02:07:42;;;;;;;12.20;9.40;;;10.10;99.90;;;9.70;100.00;97921.44;4993855;28;20026;-46
2022/05/09 02:10:08;;;;;;;11.32;9.57;;;10.10;99.90;;;9.63;100.00;97917.25;4989449;28;20052;-46
2022/05/09 02:12:34;;;;;;;11.23;9.38;;;10.10;99.90;;;9.61;100.00;97923.47;4993972;28;20508;-44
2022/05/09 02:15:00;;;;;;;10.07;8.70;;;10.10;99.90;;;9.60;100.00;97925.25;4990371;28;20042;-46
2022/05/09 02:17:25;;;;;;;11.32;9.45;;;10.00;99.90;;;9.60;100.00;97925.25;4989657;28;20204;-44
2022/05/09 02:19:51;;;;;;;11.63;9.13;;;10.00;99.90;;;9.57;100.00;97927.94;4992473;28;20037;-42
2022/05/09 02:22:18;;;;;;;11.70;9.38;;;10.00;99.90;;;9.54;100.00;97925.38;4990507;28;20081;-44
2022/05/09 02:24:45;;;;;;;11.43;9.73;;;9.90;99.90;;;9.51;100.00;97923.69;4994798;28;20092;-44
2022/05/09 02:27:10;;;;;;;11.80;9.30;;;9.90;99.90;;;9.49;100.00;97928.13;4991747;28;20038;-44
2022/05/09 02:29:42;;;;;;;9.77;8.52;;;9.90;99.90;;;9.48;100.00;97921.13;4993625;28;20397;-43
2022/05/09 02:32:09;;;;;;;12.60;8.98;;;9.90;99.90;;;9.46;100.00;97922.94;4988474;28;20038;-44
2022/05/09 02:34:35;;;;;;;9.18;8.23;;;9.90;99.90;;;9.47;100.00;97929.06;4993140;28;20568;-44
2022/05/09 02:37:02;;;;;;;11.15;8.73;;;9.80;99.90;;;9.44;100.00;97923.84;4993259;28;20041;-44
2022/05/09 02:39:27;;;;;;;12.25;8.88;;;9.80;99.90;;;9.44;100.00;97926.50;4992333;28;20038;-46
2022/05/09 02:41:53;;;;;;;9.93;8.45;;;9.80;99.90;;;9.42;100.00;97930.94;4987886;28;20041;-46
2022/05/09 02:44:19;;;;;;;11.38;9.20;;;9.80;99.90;;;9.41;100.00;97927.44;4988408;28;20045;-44
2022/05/09 02:46:46;;;;;;;10.50;8.27;;;9.80;99.90;;;9.42;100.00;97929.19;4989582;28;20084;-45
2022/05/09 02:49:11;;;;;;;9.45;8.05;;;9.80;99.90;;;9.43;100.00;97927.41;4995233;28;20026;-44
2022/05/09 02:51:38;;;;;;;10.23;8.93;;;9.80;99.90;;;9.41;100.00;97935.34;4995601;28;20068;-43
2022/05/09 02:54:03;;;;;;;10.40;9.27;;;9.80;99.90;;;9.41;100.00;97932.72;4992661;28;20026;-43
2022/05/09 02:56:29;;;;;;;10.25;9.07;;;9.80;99.90;;;9.40;100.00;97924.84;4995198;28;20545;-47
2022/05/09 02:58:55;;;;;;;10.57;9.38;;;9.80;99.90;;;9.41;100.00;97929.22;4997679;28;20034;-45
2022/05/09 03:01:21;;;;;;;10.50;9.15;;;9.80;99.90;;;9.36;100.00;97917.00;4994959;28;20026;-41
2022/05/09 03:06:31;;;;;;;11.98;9.60;;;9.80;99.90;;;9.39;100.00;97923.97;4997327;28;20457;-64
2022/05/09 03:08:57;;;;;;;11.55;9.93;;;9.80;99.90;;;9.38;100.00;97926.66;4997689;28;20477;-64
2022/05/09 03:11:23;;;;;;;10.82;9.73;;;9.70;99.90;;;9.36;100.00;97921.41;4983883;28;20058;-64
2022/05/09 03:13:49;;;;;;;12.73;9.85;;;9.70;99.90;;;9.38;100.00;97921.38;4976377;28;20580;-64
2022/05/09 03:16:14;;;;;;;11.98;9.25;;;9.80;99.90;;;9.34;100.00;97918.81;4974892;28;20518;-64
2022/05/09 03:18:40;;;;;;;12.27;10.15;;;9.70;99.90;;;9.36;100.00;97921.41;4986425;28;20463;-64
2022/05/09 03:21:06;;;;;;;10.88;9.57;;;9.70;99.90;;;9.33;100.00;97922.38;4982329;28;20046;-64
2022/05/09 03:23:32;;;;;;;13.65;11.15;;;9.70;99.90;;;9.29;100.00;97922.47;4982519;28;20398;-64
2022/05/09 03:25:58;;;;;;;11.48;10.05;;;9.70;99.90;;;9.33;100.00;97922.38;4982678;28;20046;-64
2022/05/09 03:28:25;;;;;;;14.15;9.88;;;9.70;99.90;;;9.31;100.00;97918.91;4979559;28;20675;-65
2022/05/09 03:30:56;;;;;;;10.25;9.13;;;9.70;99.90;;;9.30;100.00;97922.44;4976364;28;20486;-64
2022/05/09 03:33:24;;;;;;;12.38;9.80;;;9.70;99.90;;;9.31;100.00;97918.03;4981384;28;20042;-64
2022/05/09 03:35:50;;;;;;;14.38;10.23;;;9.70;99.90;;;9.31;100.00;97921.53;4986341;28;20425;-64
2022/05/09 03:38:16;;;;;;;12.88;10.60;;;9.70;99.90;;;9.29;100.00;97918.06;4984404;28;20033;-64
2022/05/09 03:40:42;;;;;;;11.55;10.32;;;9.70;99.90;;;9.28;100.00;97923.38;4986014;28;20970;-64
2022/05/09 03:43:08;;;;;;;12.93;10.95;;;9.70;99.90;;;9.28;100.00;97929.50;4976393;28;20379;-64
2022/05/09 03:45:35;;;;;;;11.88;10.38;;;9.70;99.90;;;9.26;100.00;97926.03;4983435;28;20057;-64
2022/05/09 03:48:03;;;;;;;11.73;9.75;;;9.70;99.90;;;9.27;100.00;97926.91;4986803;28;20113;-64
2022/05/09 03:50:29;;;;;;;13.98;11.18;;;9.70;99.90;;;9.24;100.00;97926.97;4978874;28;20174;-64
2022/05/09 03:52:54;;;;;;;12.25;10.35;;;9.60;99.90;;;9.26;100.00;97931.31;4982607;28;20042;-64
2022/05/09 03:55:20;;;;;;;12.32;10.40;;;9.60;99.90;;;9.24;100.00;97933.13;4978476;28;20034;-64
2022/05/09 03:57:55;;;;;;;14.77;11.32;;;9.70;99.90;;;9.24;100.00;97921.69;4979479;28;20482;-64
2022/05/09 04:00:25;;;;;;;14.20;10.98;;;9.70;99.90;;;9.27;100.00;97930.38;4975019;28;20561;-64
2022/05/09 04:02:51;;;;;;;12.82;10.35;;;9.70;99.90;;;9.25;100.00;97932.19;4980941;28;20034;-64
2022/05/09 04:05:18;;;;;;;14.02;10.88;;;9.70;99.90;;;9.24;100.00;97938.38;4983073;28;20029;-64
2022/05/09 04:07:47;;;;;;;13.55;10.63;;;9.60;99.90;;;9.26;100.00;97936.56;4987847;28;20038;-64
2022/05/09 04:10:17;;;;;;;13.88;10.15;;;9.60;99.90;;;9.27;100.00;97940.91;4977630;28;20042;-64
2022/05/09 04:12:42;;;;;;;12.15;9.98;;;9.70;99.90;;;9.29;100.00;97936.47;4974852;28;20038;-64
2022/05/09 04:17:55;;;;;;;13.23;10.73;;;9.70;99.90;;;9.30;100.00;97938.22;4974684;28;20459;-65
2022/05/09 04:20:22;;;;;;;11.25;9.95;;;9.70;99.90;;;9.32;100.00;97939.06;4979817;28;20569;-65
2022/05/09 04:22:48;;;;;;;12.40;10.13;;;9.70;99.90;;;9.34;100.00;97928.50;4978498;28;20030;-65
2022/05/09 04:25:15;;;;;;;13.00;10.63;;;9.70;99.90;;;9.38;100.00;97937.19;4977138;28;20030;-65
2022/05/09 04:27:41;;;;;;;14.05;11.15;;;9.80;99.90;;;9.35;100.00;97928.47;4983528;28;20026;-65
2022/05/09 04:30:09;;;;;;;11.65;10.13;;;9.80;99.90;;;9.44;100.00;97932.66;4978581;28;20632;-65
2022/05/09 04:32:35;;;;;;;12.77;10.13;;;9.80;99.90;;;9.49;100.00;97943.03;4980619;28;20046;-65
2022/05/09 04:35:01;;;;;;;11.85;10.00;;;9.90;99.90;;;9.53;100.00;97942.94;4976017;28;20038;-65
2022/05/09 04:37:27;;;;;;;13.43;10.07;;;9.90;99.90;;;9.60;100.00;97948.06;4981187;28;20030;-65
2022/05/09 04:39:54;;;;;;;12.32;10.43;;;10.00;99.90;;;9.65;100.00;97949.66;4985036;28;20100;-65
2022/05/09 04:42:20;;;;;;;13.85;10.40;;;10.00;99.90;;;9.71;100.00;97951.31;4979490;28;20026;-65
2022/05/09 04:44:46;;;;;;;11.60;10.32;;;10.10;99.90;;;9.77;100.00;97953.78;4980746;28;20027;-65
2022/05/09 04:47:13;;;;;;;12.65;11.27;;;10.10;99.90;;;9.85;100.00;97954.47;4982995;28;20497;-65
2022/05/09 04:49:39;;;;;;;13.60;11.07;;;10.20;99.90;;;9.88;100.00;97943.84;4981529;28;20045;-64
2022/05/09 04:52:06;;;;;;;12.00;10.70;;;10.30;99.90;;;10.03;100.00;97963.69;4978054;28;20464;-65
2022/05/09 04:54:32;;;;;;;12.95;11.43;;;10.40;99.90;;;10.11;100.00;97956.41;4981154;28;20648;-64
2022/05/09 04:56:57;;;;;;;15.55;11.32;;;10.50;99.90;;;10.17;100.00;97958.03;4977674;28;20095;-65
2022/05/09 04:59:23;;;;;;;12.45;10.35;;;10.60;99.90;;;10.22;100.00;97961.41;4978774;28;20030;-65
2022/05/09 05:01:49;;;;;;;14.70;12.00;;;10.60;99.90;;;10.32;100.00;97962.94;4979940;28;20058;-64
2022/05/09 05:04:17;;;;;;;12.43;10.55;;;10.70;99.90;;;10.42;100.00;97965.31;4982430;28;20116;-65
2022/05/09 05:06:44;;;;;;;12.18;10.57;;;10.80;99.90;;;10.53;100.00;97965.03;4978735;28;20416;-64
2022/05/09 05:09:10;;;;;;;13.13;11.43;;;10.90;99.90;;;10.62;100.00;97960.38;4972676;28;20436;-65
2022/05/09 05:11:37;;;;;;;14.18;11.82;;;11.00;99.90;;;10.71;100.00;97959.22;4978122;28;20033;-64
2022/05/09 05:14:03;;;;;;;14.55;12.02;;;11.10;99.90;;;10.80;100.00;97963.38;4978691;28;20570;-65
2022/05/09 05:19:13;;;;;;;14.68;12.45;;;11.40;99.90;;;11.08;100.00;97971.34;4982847;28;20532;-64
2022/05/09 05:21:42;;;;;;;14.35;12.23;;;11.50;99.90;;;11.15;100.00;97969.41;4979336;28;20042;-64
2022/05/09 05:24:08;;;;;;;17.67;12.38;;;11.60;99.90;;;11.27;100.00;97963.75;4981441;28;20030;-64
2022/05/09 05:26:33;;;;;;;14.55;12.25;;;11.70;99.90;;;11.43;100.00;97974.69;4979327;28;20052;-64
2022/05/09 05:28:59;;;;;;;16.38;11.35;;;11.80;99.90;;;11.52;100.00;97969.13;4975714;28;20033;-64
2022/05/09 05:31:25;;;;;;;14.95;10.60;;;11.90;99.90;;;11.74;100.00;97979.00;4981428;28;20030;-64
2022/05/09 05:33:50;;;;;;;10.95;9.70;;;12.10;99.90;;;11.87;100.00;97974.19;4986410;28;20030;-64
2022/05/09 05:36:16;;;;;;;11.57;9.52;;;12.20;99.90;;;11.92;100.00;97981.06;4978454;28;20045;-64
2022/05/09 05:38:43;;;;;;;13.73;10.18;;;12.30;99.90;;;12.00;100.00;97986.09;4980838;28;20061;-64
2022/05/09 05:41:09;;;;;;;13.23;10.73;;;12.40;99.90;;;12.03;100.00;97984.22;4980789;28;20391;-63
2022/05/09 05:43:35;;;;;;;12.80;10.02;;;12.40;99.90;;;12.13;100.00;97997.13;4980370;28;20082;-64
2022/05/09 05:46:01;;;;;;;11.38;9.85;;;12.50;99.90;;;12.04;100.00;97971.84;4983753;28;20482;-64
2022/05/09 05:48:27;;;;;;;12.02;9.70;;;12.60;99.90;;;12.22;100.00;97991.53;4976253;28;20116;-64
2022/05/09 05:50:52;;;;;;;13.43;10.45;;;12.60;99.90;;;12.23;100.00;97988.81;4975696;28;20042;-64
2022/05/09 05:53:19;;;;;;;13.85;11.45;;;12.60;99.90;;;12.30;100.00;98000.06;4979308;28;20491;-63
2022/05/09 05:55:45;;;;;;;14.52;10.23;;;12.70;99.90;;;12.38;100.00;97998.03;4973627;28;20089;-64
2022/05/09 05:58:11;;;;;;;12.25;9.90;;;12.70;99.90;;;12.45;100.00;98003.09;4977153;28;20574;-64
2022/05/09 06:00:37;;;;;;;12.07;10.77;;;12.80;99.90;;;12.49;100.00;98004.72;4968287;28;20038;-64
2022/05/09 06:03:04;;;;;;;12.63;10.73;;;12.90;99.90;;;12.50;100.00;97998.50;4978102;28;20116;-64
2022/05/09 06:05:29;;;;;;;12.85;10.70;;;12.90;99.90;;;12.61;100.00;98006.94;4978186;28;20030;-63
2022/05/09 06:07:56;;;;;;;13.02;10.45;;;13.00;99.90;;;12.70;100.00;98013.69;4980958;28;20573;-64
2022/05/09 06:10:23;;;;;;;14.98;11.77;;;13.10;99.90;;;12.75;100.00;98009.94;4975381;28;20046;-64
2022/05/09 06:12:48;;;;;;;12.85;10.57;;;13.10;99.90;;;12.86;100.00;98006.91;4978460;28;20035;-64
2022/05/09 06:15:25;;;;;;;10.73;9.07;;;13.20;99.90;;;12.96;100.00;98013.59;4978848;28;20514;-64
2022/05/09 06:17:52;;;;;;;11.95;9.80;;;13.30;99.90;;;13.04;100.00;98012.47;4972335;28;20033;-63
2022/05/09 06:20:19;;;;;;;12.02;9.77;;;13.40;99.90;;;13.16;100.00;98012.84;4975226;28;20078;-63
2022/05/09 06:22:45;;;;;;;10.52;9.43;;;13.50;99.90;;;13.26;100.00;98008.09;4986500;28;20026;-64
2022/05/09 06:25:16;;;;;;;12.85;8.32;;;13.60;99.90;;;13.43;100.00;98020.72;4984754;28;20030;-63
2022/05/09 06:27:41;;;;;;;12.95;8.82;;;13.80;99.90;;;13.61;100.00;98012.97;4968948;28;20400;-63
2022/05/09 06:30:11;;;;;;;11.70;8.07;;;13.90;99.90;;;13.77;100.00;98016.75;4979496;28;20117;-63
2022/05/09 06:32:37;;;;;;;11.57;8.75;;;14.10;99.90;;;13.83;100.00;98021.78;4983143;28;20457;-63
2022/05/09 06:35:09;;;;;;;10.60;8.82;;;14.20;99.90;;;14.01;100.00;98014.03;4984557;28;20053;-62
2022/05/09 06:37:38;;;;;;;10.43;8.38;;;14.40;99.90;;;14.18;100.00;98011.53;4983139;28;20065;-62
2022/05/09 06:40:07;;;;;;;10.88;8.57;;;14.50;99.90;;;14.33;100.00;98013.53;4981801;28;20502;-62
2022/05/09 06:42:33;;;;;;;12.85;7.25;;;14.70;99.90;;;14.49;100.00;98013.75;4980463;28;21124;-63
2022/05/09 06:44:59;;;;;;;10.85;7.38;;;14.80;99.90;;;14.67;100.00;98021.88;4986765;28;20081;-63
2022/05/09 06:47:25;;;;;;;8.15;7.35;;;15.00;99.90;;;14.81;100.00;98013.31;4979625;28;20038;-62
2022/05/09 06:49:50;;;;;;;8.95;7.43;;;15.10;99.90;;;14.97;100.00;98018.81;4965592;28;20042;-62
2022/05/09 06:52:16;;;;;;;9.60;7.05;;;15.20;99.90;;;15.07;100.00;98021.00;4982995;28;20030;-63
2022/05/09 06:54:42;;;;;;;8.93;7.05;;;15.30;99.90;;;15.15;99.35;98019.78;4982480;28;20829;-64
2022/05/09 06:57:07;;;;;;;8.45;7.57;;;15.40;99.90;;;15.19;94.30;98024.88;4988072;28;20047;-63
2022/05/09 06:59:34;;;;;;;6.75;5.70;;;15.50;99.90;;;15.34;94.66;98017.97;4978832;28;20507;-64
2022/05/09 07:02:01;;;;;;;6.95;5.82;;;15.60;99.90;;;15.49;95.73;98021.72;4984819;28;20019;-64
2022/05/09 07:04:27;;;;;;;7.47;6.25;;;15.70;99.90;;;15.64;95.65;98021.00;4985481;28;20137;-63
2022/05/09 07:06:53;;;;;;;8.30;6.25;;;15.90;99.90;;;15.77;93.28;98023.97;4986328;28;20026;-64
2022/05/09 07:09:19;;;;;;;9.23;6.22;;;16.00;99.90;;;15.95;92.22;98024.88;4984290;28;20034;-64
2022/05/09 07:11:44;;;;;;;6.60;5.55;;;16.10;99.90;;;16.08;91.43;98034.91;4984955;28;20048;-63
2022/05/09 07:14:11;;;;;;;6.30;5.28;;;16.30;99.90;;;16.18;90.83;98025.53;4982326;28;20026;-63
2022/05/09 07:16:37;;;;;;;8.65;6.47;;;16.40;99.90;;;16.27;88.76;98026.88;4985087;28;20113;-63
2022/05/09 07:19:04;;;;;;;6.78;5.90;;;16.50;99.90;;;16.32;85.77;98023.03;4986215;28;20036;-63
2022/05/09 07:21:31;;;;;;;7.07;5.95;;;16.50;99.90;;;16.40;84.89;98031.53;4983419;28;20041;-64
2022/05/09 07:23:58;;;;;;;11.27;6.93;;;16.60;99.90;;;16.49;83.35;98029.31;4984684;28;20026;-64
2022/05/09 07:26:24;;;;;;;7.45;6.30;;;16.70;99.90;;;16.52;83.00;98027.34;4985134;28;20477;-64
2022/05/09 07:28:50;;;;;;;9.02;7.38;;;16.70;99.90;;;16.56;82.97;98036.94;4983664;28;20117;-59
2022/05/09 07:31:15;;;;;;;9.00;6.47;;;16.80;99.90;;;16.65;82.81;98035.56;4991318;28;20383;-59
2022/05/09 07:33:43;;;;;;;6.00;5.40;;;16.90;99.90;;;16.74;82.15;98031.56;4985475;28;20026;-59
2022/05/09 07:36:09;;;;;;;10.15;7.40;;;17.00;99.90;;;16.79;82.06;98032.22;4984747;28;20743;-60
2022/05/09 07:38:34;;;;;;;8.30;6.65;;;17.10;99.90;;;16.92;80.56;98030.66;4982491;28;20033;-60
2022/05/09 07:41:00;;;;;;;8.63;6.63;;;17.10;99.90;;;16.80;79.05;98026.81;4988628;28;20466;-60
2022/05/09 07:43:29;;;;;;;8.50;6.85;;;17.10;99.90;;;16.86;80.51;98038.13;4981239;28;20022;-60
2022/05/09 07:45:56;;;;;;;8.88;7.47;;;17.10;99.90;;;16.90;80.54;98031.69;4985257;28;20037;-60
2022/05/09 07:48:24;;;;;;;7.70;6.80;;;17.20;99.90;;;16.94;78.86;98035.91;4981087;28;20026;-60
2022/05/09 07:50:51;;;;;;;9.55;6.55;;;17.20;99.90;;;17.05;79.83;98028.22;4985820;28;20486;-60
2022/05/09 07:53:21;;;;;;;8.13;6.32;;;17.30;99.90;;;17.14;80.32;98034.88;4981258;28;20043;-60
2022/05/09 07:55:48;;;;;;;10.32;6.80;;;17.30;99.90;;;17.20;81.16;98031.00;4979463;28;20039;-60
2022/05/09 07:58:14;;;;;;;7.53;6.22;;;17.40;99.90;;;17.26;78.28;98036.84;4984432;28;20039;-60
2022/05/09 08:00:41;;;;;;;9.20;6.85;;;17.50;99.90;;;17.27;78.69;98029.72;4979570;28;20542;-60
2022/05/09 08:03:22;;;;;;;9.55;6.85;;;17.50;99.90;;;17.34;77.50;98029.31;4982505;28;20390;-60
2022/05/09 08:05:49;;;;;;;9.35;6.78;;;17.50;99.90;;;17.32;80.09;98035.69;4985041;28;20033;-60
2022/05/09 08:08:15;;;;;;;10.23;7.32;;;17.60;99.90;;;17.31;77.32;98033.94;4986535;28;20034;-60
2022/05/09 08:10:43;;;;;;;8.48;6.00;;;17.60;99.90;;;17.48;77.07;98027.66;4983531;28;20258;-60
2022/05/09 08:13:11;;;;;;;7.68;6.28;;;17.70;99.90;;;17.57;75.22;98032.53;4983316;28;20296;-59
2022/05/09 08:15:37;;;;;;;8.23;5.75;;;17.80;99.90;;;17.74;77.91;98037.75;4987955;28;20116;-59
2022/05/09 08:18:03;;;;;;;10.68;6.90;;;17.90;99.90;;;17.75;74.20;98042.16;4990058;28;20097;-59
2022/05/09 08:20:33;;;;;;;8.18;6.32;;;18.00;99.90;;;17.81;74.01;98037.44;4987479;28;20097;-59
2022/05/09 08:23:01;;;;;;;7.95;6.53;;;18.10;99.90;;;17.88;74.53;98044.19;4985527;28;20030;-59
2022/05/09 08:25:27;;;;;;;11.75;7.25;;;18.10;99.90;;;17.81;75.87;98037.44;4975991;28;20407;-59
2022/05/09 08:27:53;;;;;;;9.52;7.13;;;18.10;99.90;;;17.83;75.68;98033.72;4981318;28;21359;-58
2022/05/09 08:30:19;;;;;;;8.98;5.57;;;18.10;99.90;;;17.95;76.46;98042.88;4983915;28;20037;-59
2022/05/09 08:32:44;;;;;;;9.23;7.45;;;18.20;99.90;;;17.95;74.00;98034.03;4979581;28;20131;-59
2022/05/09 08:35:13;;;;;;;8.60;6.95;;;18.20;99.90;;;18.02;72.86;98043.41;4982491;28;20045;-59
2022/05/09 08:37:39;;;;;;;7.72;5.90;;;18.40;99.90;;;18.15;73.43;98038.22;4987433;28;20030;-59
2022/05/09 08:40:06;;;;;;;8.77;6.38;;;18.40;99.90;;;18.27;72.49;98038.38;4985176;28;20452;-59
2022/05/09 08:42:45;;;;;;;8.35;6.35;;;18.50;99.90;;;18.28;72.42;98034.72;4983115;28;20099;-60
2022/05/09 08:45:22;;;;;;;8.75;6.35;;;18.60;99.90;;;18.33;71.57;98044.31;4982082;28;20494;-58
2022/05/09 08:48:29;;;;;;;6.97;6.20;;;18.60;99.90;;;18.39;71.28;98042.13;4986690;28;20034;-59
2022/05/09 08:51:10;;;;;;;10.95;6.07;;;18.70;99.90;;;18.46;69.20;98037.28;4986286;28;20050;-59
2022/05/09 08:53:40;;;;;;;10.15;5.80;;;18.70;99.90;;;18.59;70.97;98032.06;4982372;28;20056;-59
2022/05/09 08:56:15;;;;;;;7.20;5.00;;;18.80;99.90;;;18.70;70.99;98037.66;4982058;28;20037;-58
2022/05/09 08:58:53;;;;;;;8.20;6.20;;;18.90;99.90;;;18.74;70.79;98043.69;4997497;28;20042;-59
2022/05/09 09:01:33;;;;;;;7.18;5.43;;;19.00;99.90;;;18.80;69.12;98041.47;4977841;28;20216;-59
2022/05/09 09:04:04;;;;;;;7.32;5.82;;;19.00;99.90;;;18.81;70.57;98043.25;4985565;28;20072;-59
2022/05/09 09:06:52;;;;;;;5.88;4.80;;;19.10;99.90;;;18.93;69.70;98049.63;4983779;28;20036;-59
2022/05/09 09:09:54;;;;;;;9.02;6.95;;;19.10;99.90;;;18.95;68.62;98038.84;4985274;28;20362;-59
2022/05/09 09:12:47;;;;;;;5.85;5.20;;;19.20;99.90;;;19.05;69.25;98040.03;4973459;28;20049;-59
2022/05/09 09:15:55;;;;;;;7.30;5.90;;;19.20;99.90;;;18.97;69.12;98042.28;4978279;28;20033;-60
2022/05/09 09:18:45;;;;;;;7.57;5.72;;;19.20;99.90;;;18.98;69.06;98039.53;4984986;28;20330;-59
2022/05/09 09:21:23;;;;;;;9.40;6.45;;;19.30;99.90;;;19.02;67.79;98042.88;5016209;23;20053;-40
2022/05/09 09:24:15;;;;;;;9.75;6.95;;;19.30;99.90;;;19.06;69.45;98041.75;5022941;28;21547;-39
2022/05/09 09:26:59;;;;;;;8.23;6.05;;;19.30;99.90;;;19.11;67.61;98042.31;5018332;28;20229;-40
2022/05/09 09:29:34;;;;;;;7.40;5.90;;;19.40;99.90;;;19.14;68.92;98042.13;4996866;28;20131;-40
2022/05/09 09:32:20;;;;;;;9.18;5.40;;;19.40;99.90;;;19.22;67.64;98041.66;5019013;28;20037;-40
2022/05/09 09:35:08;;;;;;;6.80;5.28;;;19.50;99.90;;;19.35;64.02;98036.44;5005123;28;20489;-43
2022/05/09 09:38:06;;;;;;;11.48;5.68;;;19.60;99.90;;;19.37;63.86;98042.53;4999056;28;20140;-42
2022/05/09 09:40:33;;;;;;;7.38;5.28;;;19.60;99.90;;;19.53;65.77;98037.94;5018442;28;20041;-40
2022/05/09 09:42:59;;;;;;;8.65;5.60;;;19.70;99.90;;;19.60;63.83;98027.72;5021681;28;20044;-40
2022/05/09 09:45:54;;;;;;;6.57;5.38;;;19.90;99.90;;;19.65;65.25;98036.31;5016589;28;20045;-43
2022/05/09 09:48:23;;;;;;;9.10;5.85;;;19.90;99.90;;;19.83;62.16;98032.47;5022440;28;20609;-40
2022/05/09 09:51:12;;;;;;;7.45;5.45;;;20.10;99.90;;;20.05;62.26;98032.91;5019860;28;20092;-42
2022/05/09 09:53:50;;;;;;;6.07;4.70;;;20.30;99.90;;;20.22;61.49;98040.66;5016275;28;20029;-41
2022/05/09 09:56:21;;;;;;;7.90;5.38;;;20.50;99.90;;;20.28;61.75;98039.38;5022217;28;20033;-41
2022/05/09 09:58:56;;;;;;;5.77;5.10;;;20.60;99.90;;;20.28;59.59;98037.59;5018301;28;20029;-40
2022/05/09 10:01:34;;;;;;;6.00;4.93;;;20.60;99.90;;;20.21;56.46;98028.25;5021471;28;20033;-42
2022/05/09 10:04:24;;;;;;;7.95;4.88;;;20.60;99.90;;;20.33;58.67;98030.13;5025166;28;20095;-41
2022/05/09 10:07:14;;;;;;;6.63;4.97;;;20.60;99.90;;;20.57;57.44;98034.78;5016043;28;20405;-41
2022/05/09 10:10:07;;;;;;;5.28;4.40;;;20.80;99.90;;;20.60;53.76;98010.44;5011349;28;20148;-41
2022/05/09 10:12:34;;;;;;;6.60;4.60;;;21.00;99.90;;;20.92;55.49;98002.03;5020329;28;20029;-42
2022/05/09 10:15:03;;;;;;;6.20;4.30;;;21.20;99.90;;;21.20;52.46;98014.38;5027231;28;20075;-40
2022/05/09 10:17:33;;;;;;;6.28;4.22;;;21.50;99.90;;;21.56;51.79;98014.59;5027550;28;20049;-41
2022/05/09 10:20:21;;;;;;;6.25;4.32;;;21.80;99.10;;;21.65;52.11;98008.56;5023742;28;20040;-42
2022/05/09 10:25:33;;;;;;;7.03;3.70;;;22.20;98.50;;;21.73;50.07;98008.84;5022183;28;20067;-42
2022/05/09 10:28:16;;;;;;;4.93;4.25;;;22.10;97.30;;;21.71;50.35;98011.66;5021263;28;20030;-40
2022/05/09 10:30:46;;;;;;;5.97;4.45;;;22.00;97.00;;;21.88;49.68;98002.34;5023377;28;20067;-41
2022/05/09 10:33:43;;;;;;;5.07;4.20;;;22.10;96.80;;;22.12;50.57;98001.50;5003820;28;20040;-42
2022/05/09 10:36:21;;;;;;;5.97;4.18;;;22.40;96.90;;;22.42;52.06;98008.28;5006835;28;20096;-40
2022/05/09 10:38:58;;;;;;;5.55;3.78;;;22.70;97.80;;;22.53;47.66;98002.94;5025630;28;20037;-41
2022/05/09 10:41:50;;;;;;;5.45;4.70;;;22.90;95.00;;;22.64;47.21;97994.91;5002362;28;20438;-41